sensor_id;sensor_type;location;lat;lon;timestamp;P1;durP1;ratioP1;P2;durP2;ratioP2
20739;SDS011;10530;49.968;19.844;2023-05-01T00:01:05;7.90;;;2.33;;
20739;SDS011;10530;49.968;19.844;2023-05-01T00:06:08;9.10;;;2.53;;
20739;SDS011;10530;49.968;19.844;2023-05-01T00:11:11;6.37;;;2.40;;
20739;SDS011;10530;49.968;19.844;2023-05-01T00:16:14;6.68;;;2.20;;
20739;SDS011;10530;49.968;19.844;2023-05-01T00:21:18;8.13;;;2.65;;
20739;SDS011;10530;49.968;19.844;2023-05-01T00:26:21;6.40;;;2.22;;
20739;SDS011;10530;49.968;19.844;2023-05-01T00:31:24;7.03;;;2.65;;
20739;SDS011;10530;49.968;19.844;2023-05-01T00:36:27;13.57;;;2.77;;
20739;SDS011;10530;49.968;19.844;2023-05-01T00:41:29;6.20;;;2.35;;
20739;SDS011;10530;49.968;19.844;2023-05-01T00:46:32;7.38;;;2.38;;
20739;SDS011;10530;49.968;19.844;2023-05-01T00:51:36;8.02;;;2.03;;
20739;SDS011;10530;49.968;19.844;2023-05-01T00:56:38;7.72;;;2.53;;
20739;SDS011;10530;49.968;19.844;2023-05-01T01:01:41;11.53;;;2.97;;
20739;SDS011;10530;49.968;19.844;2023-05-01T01:18:42;6.85;;;2.17;;
20739;SDS011;10530;49.968;19.844;2023-05-01T01:35:11;6.75;;;2.28;;
20739;SDS011;10530;49.968;19.844;2023-05-01T01:40:21;8.85;;;2.53;;
20739;SDS011;10530;49.968;19.844;2023-05-01T01:45:29;5.25;;;2.15;;
20739;SDS011;10530;49.968;19.844;2023-05-01T01:50:42;7.05;;;2.92;;
20739;SDS011;10530;49.968;19.844;2023-05-01T01:55:47;8.70;;;2.80;;
20739;SDS011;10530;49.968;19.844;2023-05-01T02:00:53;6.43;;;2.20;;
20739;SDS011;10530;49.968;19.844;2023-05-01T02:05:57;6.28;;;2.53;;
20739;SDS011;10530;49.968;19.844;2023-05-01T02:11:01;8.02;;;2.75;;
20739;SDS011;10530;49.968;19.844;2023-05-01T02:16:06;6.22;;;2.65;;
20739;SDS011;10530;49.968;19.844;2023-05-01T02:21:10;8.07;;;3.00;;
20739;SDS011;10530;49.968;19.844;2023-05-01T02:26:14;7.50;;;2.90;;
20739;SDS011;10530;49.968;19.844;2023-05-01T02:31:19;10.60;;;3.00;;
20739;SDS011;10530;49.968;19.844;2023-05-01T02:36:24;4.85;;;2.22;;
20739;SDS011;10530;49.968;19.844;2023-05-01T02:41:28;5.68;;;2.63;;
20739;SDS011;10530;49.968;19.844;2023-05-01T02:46:34;6.70;;;2.30;;
20739;SDS011;10530;49.968;19.844;2023-05-01T02:51:38;6.45;;;2.63;;
20739;SDS011;10530;49.968;19.844;2023-05-01T02:56:42;6.00;;;2.75;;
20739;SDS011;10530;49.968;19.844;2023-05-01T03:01:45;7.80;;;3.15;;
20739;SDS011;10530;49.968;19.844;2023-05-01T03:06:47;9.50;;;2.70;;
20739;SDS011;10530;49.968;19.844;2023-05-01T03:11:50;9.73;;;3.60;;
20739;SDS011;10530;49.968;19.844;2023-05-01T03:16:53;10.98;;;2.75;;
20739;SDS011;10530;49.968;19.844;2023-05-01T03:21:56;9.60;;;2.58;;
20739;SDS011;10530;49.968;19.844;2023-05-01T03:27:00;5.72;;;2.65;;
20739;SDS011;10530;49.968;19.844;2023-05-01T03:32:03;7.15;;;2.92;;
20739;SDS011;10530;49.968;19.844;2023-05-01T03:37:07;7.33;;;2.40;;
20739;SDS011;10530;49.968;19.844;2023-05-01T03:42:09;9.55;;;2.78;;
20739;SDS011;10530;49.968;19.844;2023-05-01T03:47:15;8.02;;;3.00;;
20739;SDS011;10530;49.968;19.844;2023-05-01T03:52:17;7.05;;;2.45;;
20739;SDS011;10530;49.968;19.844;2023-05-01T03:57:20;10.23;;;2.45;;
20739;SDS011;10530;49.968;19.844;2023-05-01T04:02:24;7.37;;;2.40;;
20739;SDS011;10530;49.968;19.844;2023-05-01T04:07:27;8.27;;;3.00;;
20739;SDS011;10530;49.968;19.844;2023-05-01T04:12:30;9.60;;;3.40;;
20739;SDS011;10530;49.968;19.844;2023-05-01T04:17:33;9.93;;;2.80;;
20739;SDS011;10530;49.968;19.844;2023-05-01T04:22:37;8.02;;;2.88;;
20739;SDS011;10530;49.968;19.844;2023-05-01T04:27:40;8.67;;;3.43;;
20739;SDS011;10530;49.968;19.844;2023-05-01T04:32:42;16.85;;;6.75;;
20739;SDS011;10530;49.968;19.844;2023-05-01T04:37:45;14.77;;;6.25;;
20739;SDS011;10530;49.968;19.844;2023-05-01T04:42:48;17.02;;;6.90;;
20739;SDS011;10530;49.968;19.844;2023-05-01T04:47:51;16.60;;;7.32;;
20739;SDS011;10530;49.968;19.844;2023-05-01T04:52:54;19.13;;;6.63;;
20739;SDS011;10530;49.968;19.844;2023-05-01T04:57:57;16.33;;;7.05;;
20739;SDS011;10530;49.968;19.844;2023-05-01T05:03:00;14.13;;;6.35;;
20739;SDS011;10530;49.968;19.844;2023-05-01T05:08:04;11.02;;;5.50;;
20739;SDS011;10530;49.968;19.844;2023-05-01T05:13:11;15.27;;;6.35;;
20739;SDS011;10530;49.968;19.844;2023-05-01T05:18:16;11.30;;;4.97;;
20739;SDS011;10530;49.968;19.844;2023-05-01T05:23:20;14.40;;;4.90;;
20739;SDS011;10530;49.968;19.844;2023-05-01T05:28:24;16.50;;;5.55;;
20739;SDS011;10530;49.968;19.844;2023-05-01T05:33:27;13.05;;;5.43;;
20739;SDS011;10530;49.968;19.844;2023-05-01T05:38:31;12.75;;;5.35;;
20739;SDS011;10530;49.968;19.844;2023-05-01T05:43:36;12.60;;;4.70;;
20739;SDS011;10530;49.968;19.844;2023-05-01T05:48:41;11.93;;;4.43;;
20739;SDS011;10530;49.968;19.844;2023-05-01T05:53:44;9.50;;;3.83;;
20739;SDS011;10530;49.968;19.844;2023-05-01T05:58:48;9.20;;;3.90;;
20739;SDS011;10530;49.968;19.844;2023-05-01T06:03:51;9.73;;;4.05;;
20739;SDS011;10530;49.968;19.844;2023-05-01T06:08:56;11.10;;;4.50;;
20739;SDS011;10530;49.968;19.844;2023-05-01T06:13:59;8.98;;;3.60;;
20739;SDS011;10530;49.968;19.844;2023-05-01T06:19:03;11.45;;;5.05;;
20739;SDS011;10530;49.968;19.844;2023-05-01T06:24:07;8.98;;;2.90;;
20739;SDS011;10530;49.968;19.844;2023-05-01T06:29:19;8.15;;;2.72;;
20739;SDS011;10530;49.968;19.844;2023-05-01T06:34:22;5.23;;;1.50;;
20739;SDS011;10530;49.968;19.844;2023-05-01T06:39:27;7.63;;;2.28;;
20739;SDS011;10530;49.968;19.844;2023-05-01T06:44:30;4.95;;;2.25;;
20739;SDS011;10530;49.968;19.844;2023-05-01T06:49:35;5.25;;;1.77;;
20739;SDS011;10530;49.968;19.844;2023-05-01T06:54:38;5.18;;;1.52;;
20739;SDS011;10530;49.968;19.844;2023-05-01T06:59:41;7.23;;;2.00;;
20739;SDS011;10530;49.968;19.844;2023-05-01T07:04:44;7.40;;;2.00;;
20739;SDS011;10530;49.968;19.844;2023-05-01T07:09:47;5.45;;;1.60;;
20739;SDS011;10530;49.968;19.844;2023-05-01T07:14:49;4.60;;;1.40;;
20739;SDS011;10530;49.968;19.844;2023-05-01T07:19:52;7.53;;;1.92;;
20739;SDS011;10530;49.968;19.844;2023-05-01T07:24:55;5.67;;;1.53;;
20739;SDS011;10530;49.968;19.844;2023-05-01T07:29:58;4.80;;;1.40;;
20739;SDS011;10530;49.968;19.844;2023-05-01T07:35:01;6.35;;;1.83;;
20739;SDS011;10530;49.968;19.844;2023-05-01T07:40:05;3.17;;;1.27;;
20739;SDS011;10530;49.968;19.844;2023-05-01T07:45:08;7.90;;;1.70;;
20739;SDS011;10530;49.968;19.844;2023-05-01T07:50:11;6.13;;;1.70;;
20739;SDS011;10530;49.968;19.844;2023-05-01T07:55:14;7.70;;;1.27;;
20739;SDS011;10530;49.968;19.844;2023-05-01T08:00:20;7.55;;;1.90;;
20739;SDS011;10530;49.968;19.844;2023-05-01T08:05:23;4.28;;;1.63;;
20739;SDS011;10530;49.968;19.844;2023-05-01T08:10:25;7.78;;;1.75;;
20739;SDS011;10530;49.968;19.844;2023-05-01T08:15:29;5.77;;;2.10;;
20739;SDS011;10530;49.968;19.844;2023-05-01T08:20:32;4.53;;;1.80;;
20739;SDS011;10530;49.968;19.844;2023-05-01T08:25:37;5.60;;;1.77;;
20739;SDS011;10530;49.968;19.844;2023-05-01T08:30:40;5.03;;;1.83;;
20739;SDS011;10530;49.968;19.844;2023-05-01T08:35:42;4.78;;;1.60;;
20739;SDS011;10530;49.968;19.844;2023-05-01T08:40:51;4.83;;;2.00;;
20739;SDS011;10530;49.968;19.844;2023-05-01T08:45:55;6.15;;;2.10;;
20739;SDS011;10530;49.968;19.844;2023-05-01T08:51:05;7.07;;;2.33;;
20739;SDS011;10530;49.968;19.844;2023-05-01T08:56:07;5.75;;;2.22;;
20739;SDS011;10530;49.968;19.844;2023-05-01T09:01:14;3.30;;;1.35;;
20739;SDS011;10530;49.968;19.844;2023-05-01T09:06:17;6.10;;;2.10;;
20739;SDS011;10530;49.968;19.844;2023-05-01T09:11:21;6.47;;;2.20;;
20739;SDS011;10530;49.968;19.844;2023-05-01T09:16:25;4.93;;;1.85;;
20739;SDS011;10530;49.968;19.844;2023-05-01T09:21:28;7.13;;;2.15;;
20739;SDS011;10530;49.968;19.844;2023-05-01T09:26:33;5.15;;;2.20;;
20739;SDS011;10530;49.968;19.844;2023-05-01T09:31:39;4.80;;;2.00;;
20739;SDS011;10530;49.968;19.844;2023-05-01T09:36:42;6.25;;;2.55;;
20739;SDS011;10530;49.968;19.844;2023-05-01T09:42:23;4.32;;;1.77;;
20739;SDS011;10530;49.968;19.844;2023-05-01T09:47:26;6.43;;;2.70;;
20739;SDS011;10530;49.968;19.844;2023-05-01T09:52:32;6.07;;;2.30;;
20739;SDS011;10530;49.968;19.844;2023-05-01T09:57:35;4.77;;;2.10;;
20739;SDS011;10530;49.968;19.844;2023-05-01T10:02:39;5.13;;;1.85;;
20739;SDS011;10530;49.968;19.844;2023-05-01T10:07:57;6.53;;;2.03;;
20739;SDS011;10530;49.968;19.844;2023-05-01T10:13:13;3.67;;;1.50;;
20739;SDS011;10530;49.968;19.844;2023-05-01T10:18:17;4.07;;;1.83;;
20739;SDS011;10530;49.968;19.844;2023-05-01T10:23:20;5.23;;;2.00;;
20739;SDS011;10530;49.968;19.844;2023-05-01T10:28:24;5.35;;;2.17;;
20739;SDS011;10530;49.968;19.844;2023-05-01T10:33:29;4.55;;;1.80;;
20739;SDS011;10530;49.968;19.844;2023-05-01T10:38:33;5.63;;;2.35;;
20739;SDS011;10530;49.968;19.844;2023-05-01T10:43:36;4.07;;;1.58;;
20739;SDS011;10530;49.968;19.844;2023-05-01T10:53:44;3.63;;;1.45;;
20739;SDS011;10530;49.968;19.844;2023-05-01T11:03:54;5.35;;;2.00;;
20739;SDS011;10530;49.968;19.844;2023-05-01T11:08:58;4.93;;;2.13;;
20739;SDS011;10530;49.968;19.844;2023-05-01T11:14:02;4.80;;;2.20;;
20739;SDS011;10530;49.968;19.844;2023-05-01T11:24:31;5.72;;;2.20;;
20739;SDS011;10530;49.968;19.844;2023-05-01T11:29:34;6.85;;;2.17;;
20739;SDS011;10530;49.968;19.844;2023-05-01T11:34:38;6.20;;;2.20;;
20739;SDS011;10530;49.968;19.844;2023-05-01T11:39:51;6.77;;;2.00;;
20739;SDS011;10530;49.968;19.844;2023-05-01T11:45:09;5.95;;;2.00;;
20739;SDS011;10530;49.968;19.844;2023-05-01T11:50:12;4.85;;;2.10;;
20739;SDS011;10530;49.968;19.844;2023-05-01T11:55:15;5.00;;;1.90;;
20739;SDS011;10530;49.968;19.844;2023-05-01T12:00:25;5.00;;;1.98;;
20739;SDS011;10530;49.968;19.844;2023-05-01T12:05:41;4.80;;;2.10;;
20739;SDS011;10530;49.968;19.844;2023-05-01T12:10:46;5.63;;;2.30;;
20739;SDS011;10530;49.968;19.844;2023-05-01T12:15:59;5.63;;;2.40;;
20739;SDS011;10530;49.968;19.844;2023-05-01T12:21:02;4.90;;;2.15;;
20739;SDS011;10530;49.968;19.844;2023-05-01T12:31:44;6.50;;;2.37;;
20739;SDS011;10530;49.968;19.844;2023-05-01T12:36:52;7.70;;;2.83;;
20739;SDS011;10530;49.968;19.844;2023-05-01T12:41:55;7.45;;;3.40;;
20739;SDS011;10530;49.968;19.844;2023-05-01T12:46:59;6.72;;;2.80;;
20739;SDS011;10530;49.968;19.844;2023-05-01T12:52:07;6.75;;;3.03;;
20739;SDS011;10530;49.968;19.844;2023-05-01T13:02:16;5.28;;;2.60;;
20739;SDS011;10530;49.968;19.844;2023-05-01T13:07:19;5.10;;;2.40;;
20739;SDS011;10530;49.968;19.844;2023-05-01T13:12:23;5.45;;;2.33;;
20739;SDS011;10530;49.968;19.844;2023-05-01T13:22:36;5.83;;;2.60;;
20739;SDS011;10530;49.968;19.844;2023-05-01T13:27:40;4.38;;;1.77;;
20739;SDS011;10530;49.968;19.844;2023-05-01T13:32:48;4.65;;;2.08;;
20739;SDS011;10530;49.968;19.844;2023-05-01T13:37:51;7.07;;;2.72;;
20739;SDS011;10530;49.968;19.844;2023-05-01T13:42:54;5.55;;;2.00;;
20739;SDS011;10530;49.968;19.844;2023-05-01T13:47:58;5.03;;;2.30;;
20739;SDS011;10530;49.968;19.844;2023-05-01T13:53:00;4.95;;;1.70;;
20739;SDS011;10530;49.968;19.844;2023-05-01T13:58:03;5.30;;;1.90;;
20739;SDS011;10530;49.968;19.844;2023-05-01T14:03:08;6.85;;;2.35;;
20739;SDS011;10530;49.968;19.844;2023-05-01T14:08:12;6.20;;;2.10;;
20739;SDS011;10530;49.968;19.844;2023-05-01T14:13:16;4.83;;;2.00;;
20739;SDS011;10530;49.968;19.844;2023-05-01T14:18:20;5.75;;;2.35;;
20739;SDS011;10530;49.968;19.844;2023-05-01T14:23:23;5.70;;;2.40;;
20739;SDS011;10530;49.968;19.844;2023-05-01T14:28:26;5.10;;;1.60;;
20739;SDS011;10530;49.968;19.844;2023-05-01T14:33:29;4.85;;;1.80;;
20739;SDS011;10530;49.968;19.844;2023-05-01T14:38:32;4.47;;;1.67;;
20739;SDS011;10530;49.968;19.844;2023-05-01T14:43:40;3.85;;;1.58;;
20739;SDS011;10530;49.968;19.844;2023-05-01T14:48:45;4.80;;;1.80;;
20739;SDS011;10530;49.968;19.844;2023-05-01T14:53:48;5.25;;;1.70;;
20739;SDS011;10530;49.968;19.844;2023-05-01T14:58:51;4.07;;;1.70;;
20739;SDS011;10530;49.968;19.844;2023-05-01T15:03:54;4.13;;;1.80;;
20739;SDS011;10530;49.968;19.844;2023-05-01T15:08:58;5.05;;;1.63;;
20739;SDS011;10530;49.968;19.844;2023-05-01T15:14:01;5.63;;;2.13;;
20739;SDS011;10530;49.968;19.844;2023-05-01T15:19:05;6.32;;;1.88;;
20739;SDS011;10530;49.968;19.844;2023-05-01T15:24:07;6.35;;;2.30;;
20739;SDS011;10530;49.968;19.844;2023-05-01T15:29:11;6.33;;;2.07;;
20739;SDS011;10530;49.968;19.844;2023-05-01T15:34:14;4.65;;;1.70;;
20739;SDS011;10530;49.968;19.844;2023-05-01T15:39:17;4.57;;;1.80;;
20739;SDS011;10530;49.968;19.844;2023-05-01T15:44:21;5.20;;;1.85;;
20739;SDS011;10530;49.968;19.844;2023-05-01T15:49:24;4.95;;;1.83;;
20739;SDS011;10530;49.968;19.844;2023-05-01T15:54:26;6.67;;;2.00;;
20739;SDS011;10530;49.968;19.844;2023-05-01T15:59:29;6.18;;;2.10;;
20739;SDS011;10530;49.968;19.844;2023-05-01T16:04:32;7.32;;;2.40;;
20739;SDS011;10530;49.968;19.844;2023-05-01T16:09:35;6.75;;;2.10;;
20739;SDS011;10530;49.968;19.844;2023-05-01T16:14:39;4.22;;;1.90;;
20739;SDS011;10530;49.968;19.844;2023-05-01T16:19:42;6.20;;;2.00;;
20739;SDS011;10530;49.968;19.844;2023-05-01T16:24:45;6.53;;;1.90;;
20739;SDS011;10530;49.968;19.844;2023-05-01T16:29:48;4.88;;;2.17;;
20739;SDS011;10530;49.968;19.844;2023-05-01T16:34:51;4.15;;;1.80;;
20739;SDS011;10530;49.968;19.844;2023-05-01T16:39:56;5.85;;;2.40;;
20739;SDS011;10530;49.968;19.844;2023-05-01T16:45:00;5.60;;;1.80;;
20739;SDS011;10530;49.968;19.844;2023-05-01T16:50:05;5.03;;;1.73;;
20739;SDS011;10530;49.968;19.844;2023-05-01T16:55:10;8.63;;;2.88;;
20739;SDS011;10530;49.968;19.844;2023-05-01T17:00:14;7.07;;;1.80;;
20739;SDS011;10530;49.968;19.844;2023-05-01T17:05:17;5.82;;;2.10;;
20739;SDS011;10530;49.968;19.844;2023-05-01T17:10:20;5.97;;;2.20;;
20739;SDS011;10530;49.968;19.844;2023-05-01T17:15:23;5.75;;;2.13;;
20739;SDS011;10530;49.968;19.844;2023-05-01T17:20:26;7.45;;;2.70;;
20739;SDS011;10530;49.968;19.844;2023-05-01T17:25:29;5.10;;;2.22;;
20739;SDS011;10530;49.968;19.844;2023-05-01T17:30:32;7.03;;;2.90;;
20739;SDS011;10530;49.968;19.844;2023-05-01T17:35:35;12.83;;;4.20;;
20739;SDS011;10530;49.968;19.844;2023-05-01T17:40:39;10.50;;;3.95;;
20739;SDS011;10530;49.968;19.844;2023-05-01T17:45:42;9.15;;;3.38;;
20739;SDS011;10530;49.968;19.844;2023-05-01T17:50:46;10.52;;;3.42;;
20739;SDS011;10530;49.968;19.844;2023-05-01T17:55:50;7.65;;;3.10;;
20739;SDS011;10530;49.968;19.844;2023-05-01T18:00:53;8.13;;;3.50;;
20739;SDS011;10530;49.968;19.844;2023-05-01T18:05:59;11.23;;;3.13;;
20739;SDS011;10530;49.968;19.844;2023-05-01T18:11:03;7.22;;;2.70;;
20739;SDS011;10530;49.968;19.844;2023-05-01T18:16:06;6.82;;;3.20;;
20739;SDS011;10530;49.968;19.844;2023-05-01T18:21:09;8.65;;;2.80;;
20739;SDS011;10530;49.968;19.844;2023-05-01T18:26:12;8.50;;;2.87;;
20739;SDS011;10530;49.968;19.844;2023-05-01T18:31:16;8.05;;;2.85;;
20739;SDS011;10530;49.968;19.844;2023-05-01T18:36:19;7.32;;;2.65;;
20739;SDS011;10530;49.968;19.844;2023-05-01T18:41:22;9.07;;;3.03;;
20739;SDS011;10530;49.968;19.844;2023-05-01T18:46:27;9.98;;;3.42;;
20739;SDS011;10530;49.968;19.844;2023-05-01T18:51:29;9.43;;;4.33;;
20739;SDS011;10530;49.968;19.844;2023-05-01T18:56:33;14.55;;;5.72;;
20739;SDS011;10530;49.968;19.844;2023-05-01T19:01:36;11.02;;;5.18;;
20739;SDS011;10530;49.968;19.844;2023-05-01T19:06:39;13.48;;;4.70;;
20739;SDS011;10530;49.968;19.844;2023-05-01T19:11:42;11.10;;;4.35;;
20739;SDS011;10530;49.968;19.844;2023-05-01T19:16:45;9.77;;;4.33;;
20739;SDS011;10530;49.968;19.844;2023-05-01T19:21:48;14.40;;;6.32;;
20739;SDS011;10530;49.968;19.844;2023-05-01T19:26:51;27.23;;;12.57;;
20739;SDS011;10530;49.968;19.844;2023-05-01T19:31:54;21.27;;;8.10;;
20739;SDS011;10530;49.968;19.844;2023-05-01T19:36:57;14.48;;;6.22;;
20739;SDS011;10530;49.968;19.844;2023-05-01T19:42:03;12.03;;;4.43;;
20739;SDS011;10530;49.968;19.844;2023-05-01T19:47:06;11.90;;;4.90;;
20739;SDS011;10530;49.968;19.844;2023-05-01T19:52:09;19.08;;;7.07;;
20739;SDS011;10530;49.968;19.844;2023-05-01T19:57:12;17.10;;;7.35;;
20739;SDS011;10530;49.968;19.844;2023-05-01T20:02:15;13.93;;;6.18;;
20739;SDS011;10530;49.968;19.844;2023-05-01T20:07:18;15.73;;;6.40;;
20739;SDS011;10530;49.968;19.844;2023-05-01T20:12:21;14.20;;;5.75;;
20739;SDS011;10530;49.968;19.844;2023-05-01T20:17:24;14.75;;;6.82;;
20739;SDS011;10530;49.968;19.844;2023-05-01T20:22:28;17.85;;;7.07;;
20739;SDS011;10530;49.968;19.844;2023-05-01T20:27:31;17.00;;;7.00;;
20739;SDS011;10530;49.968;19.844;2023-05-01T20:32:34;15.13;;;6.50;;
20739;SDS011;10530;49.968;19.844;2023-05-01T20:37:37;17.65;;;7.05;;
20739;SDS011;10530;49.968;19.844;2023-05-01T20:42:40;19.38;;;7.05;;
20739;SDS011;10530;49.968;19.844;2023-05-01T20:47:44;26.25;;;8.43;;
20739;SDS011;10530;49.968;19.844;2023-05-01T20:52:47;24.52;;;8.30;;
20739;SDS011;10530;49.968;19.844;2023-05-01T20:57:50;21.90;;;8.53;;
20739;SDS011;10530;49.968;19.844;2023-05-01T21:02:52;26.67;;;7.82;;
20739;SDS011;10530;49.968;19.844;2023-05-01T21:07:56;33.28;;;8.30;;
20739;SDS011;10530;49.968;19.844;2023-05-01T21:13:01;23.10;;;8.27;;
20739;SDS011;10530;49.968;19.844;2023-05-01T21:18:04;20.63;;;8.40;;
20739;SDS011;10530;49.968;19.844;2023-05-01T21:23:07;21.83;;;7.70;;
20739;SDS011;10530;49.968;19.844;2023-05-01T21:28:11;22.63;;;8.55;;
20739;SDS011;10530;49.968;19.844;2023-05-01T21:33:14;20.35;;;7.07;;
20739;SDS011;10530;49.968;19.844;2023-05-01T21:38:20;19.33;;;7.13;;
20739;SDS011;10530;49.968;19.844;2023-05-01T21:43:23;22.33;;;7.40;;
20739;SDS011;10530;49.968;19.844;2023-05-01T21:48:25;20.27;;;7.67;;
20739;SDS011;10530;49.968;19.844;2023-05-01T21:53:30;19.60;;;7.93;;
20739;SDS011;10530;49.968;19.844;2023-05-01T21:58:33;19.25;;;8.25;;
20739;SDS011;10530;49.968;19.844;2023-05-01T22:03:38;20.42;;;8.25;;
20739;SDS011;10530;49.968;19.844;2023-05-01T22:08:42;16.83;;;6.93;;
20739;SDS011;10530;49.968;19.844;2023-05-01T22:13:45;19.43;;;8.00;;
20739;SDS011;10530;49.968;19.844;2023-05-01T22:18:48;16.10;;;6.70;;
20739;SDS011;10530;49.968;19.844;2023-05-01T22:23:51;17.95;;;7.50;;
20739;SDS011;10530;49.968;19.844;2023-05-01T22:28:54;13.52;;;6.68;;
20739;SDS011;10530;49.968;19.844;2023-05-01T22:33:57;17.98;;;6.43;;
20739;SDS011;10530;49.968;19.844;2023-05-01T22:39:00;16.47;;;6.80;;
20739;SDS011;10530;49.968;19.844;2023-05-01T22:44:03;14.23;;;5.60;;
20739;SDS011;10530;49.968;19.844;2023-05-01T22:49:07;14.38;;;5.72;;
20739;SDS011;10530;49.968;19.844;2023-05-01T22:54:11;13.20;;;5.57;;
20739;SDS011;10530;49.968;19.844;2023-05-01T22:59:13;14.88;;;5.55;;
20739;SDS011;10530;49.968;19.844;2023-05-01T23:04:17;13.90;;;6.03;;
20739;SDS011;10530;49.968;19.844;2023-05-01T23:09:20;14.20;;;5.88;;
20739;SDS011;10530;49.968;19.844;2023-05-01T23:14:23;16.20;;;5.75;;
20739;SDS011;10530;49.968;19.844;2023-05-01T23:19:26;15.45;;;6.03;;
20739;SDS011;10530;49.968;19.844;2023-05-01T23:24:30;13.65;;;5.60;;
20739;SDS011;10530;49.968;19.844;2023-05-01T23:34:59;13.45;;;5.38;;
20739;SDS011;10530;49.968;19.844;2023-05-01T23:40:14;14.02;;;5.10;;
20739;SDS011;10530;49.968;19.844;2023-05-01T23:45:17;11.50;;;5.88;;
20739;SDS011;10530;49.968;19.844;2023-05-01T23:50:20;14.10;;;5.63;;
20739;SDS011;10530;49.968;19.844;2023-05-01T23:55:26;13.90;;;5.67;;
